Sheldon, SC (29941)

12:07 AM EST on February 07, 2016 (GMT -0500)
Point South KOA | | Change Station
CLOSE
Current Station
Personal Weather Station
Location: Yemassee, SC
Elevation: 14 ft
Nearby Weather Stations

Elev 14 ft 32.62 °N, 80.88 °W | Updated 16 seconds ago

Overcast
Overcast
40.5 °F
Feels Like 40 °F
N
1.8
Wind Variable Wind from NNE
Gusts 2.5 mph

Today
High -- | Low -- °F
--% Chance of Precip.
Yesterday
High -- | Low -- °F
Precip. -- in
Pressure 30.10 in
Visibility 6.0 miles
Clouds Scattered Clouds 900 ft
Mostly Cloudy 6000 ft
Overcast 7000 ft
Windchill 40 °F
Dew Point 26 °F
Humidity 56%
Rainfall 0.00 in
Snow Depth Not available.
7:13 AM 6:01 PM
Waning Crescent, 3% visible
SPECI KNBC 070501Z AUTO 02014KT 6SM RA BR SCT009 BKN060 OVC070 05/04 A3010 RMK AO2 P0001 T00500039
Pressure 30.10 in
Visibility 6.0 miles
Clouds Scattered Clouds 900 ft
Mostly Cloudy 6000 ft
Overcast 7000 ft
Windchill 40 °F
Dew Point 26 °F
Humidity 56%
Rainfall 0.00 in
Snow Depth Not available.
7:13 AM 6:01 PM
Waning Crescent, 3% visible
SPECI KNBC 070501Z AUTO 02014KT 6SM RA BR SCT009 BKN060 OVC070 05/04 A3010 RMK AO2 P0001 T00500039

10-Day Weather Forecast

Almanac

Astronomy

Feb. 07, 2016 Rise Set
Actual Time
Civil Twilight
Nautical Twilight
Astronomical Twilight
Moon
Length of Visible Light
Length of Day
Tomorrow will be .
, % of the Moon is Illuminated

Today's Extremes

State Highs State Lows

Community

WunderPhotos

Upload Photos

1,891,157 photos uploaded!

WunderBlog® & News

Nearby

Air Quality

  Air Quality AQ Index Pollutant
Not available.

Snow Depth

Station Depth Elevation

Earthquake Activity

City Distance Mag. Time & Date
Minimum magnitude displayed is 2.5.

Coastal Water Temperatures

Place Temperature

Stations

Nearby Weather Stations

Station Location Temp. Windchill Dew Point Humidity Wind Precip. Elev Updated Type
                   

Watches & Warnings

There are currently no watches in effect.